createdAt,value
2022-11-06T00:00:02.857Z,5.60
2022-11-06T00:01:02.824Z,5.60
2022-11-06T00:02:02.797Z,5.60
2022-11-06T00:03:02.975Z,5.60
2022-11-06T00:04:03.026Z,5.60
2022-11-06T00:05:03.016Z,5.60
2022-11-06T00:06:02.986Z,5.60
2022-11-06T00:07:03.081Z,5.60
2022-11-06T00:08:03.147Z,5.50
2022-11-06T00:09:03.192Z,5.50
2022-11-06T00:10:03.259Z,5.50
2022-11-06T00:11:03.225Z,5.50
2022-11-06T00:12:03.336Z,5.50
2022-11-06T00:13:03.355Z,5.50
2022-11-06T00:14:03.412Z,5.50
2022-11-06T00:15:03.419Z,5.50
2022-11-06T00:16:03.449Z,5.50
2022-11-06T00:17:03.580Z,5.50
2022-11-06T00:18:02.777Z,5.50
2022-11-06T00:19:02.847Z,5.50
2022-11-06T00:20:02.790Z,5.50
2022-11-06T00:21:02.870Z,5.60
2022-11-06T00:22:02.890Z,5.50
2022-11-06T00:23:02.960Z,5.60
2022-11-06T00:24:02.893Z,5.60
2022-11-06T00:25:02.955Z,5.60
2022-11-06T00:26:03.035Z,5.60
2022-11-06T00:27:03.070Z,5.60
2022-11-06T00:28:03.025Z,5.60
2022-11-06T00:29:02.962Z,5.60
2022-11-06T00:30:03.074Z,5.60
2022-11-06T00:31:03.117Z,5.60
2022-11-06T00:32:03.129Z,5.50
2022-11-06T00:33:03.408Z,5.50
2022-11-06T00:34:03.536Z,5.50
2022-11-06T00:35:03.601Z,5.50
2022-11-06T00:36:02.851Z,5.50
2022-11-06T00:37:02.854Z,5.50
2022-11-06T00:38:02.892Z,5.50
2022-11-06T00:39:02.960Z,5.50
2022-11-06T00:40:02.939Z,5.50
2022-11-06T00:41:03.017Z,5.40
2022-11-06T00:42:03.093Z,5.40
2022-11-06T00:43:03.334Z,5.40
2022-11-06T00:44:02.889Z,5.40
2022-11-06T00:45:02.944Z,5.40
2022-11-06T00:46:03.047Z,5.40
2022-11-06T00:47:03.048Z,5.30
2022-11-06T00:48:03.104Z,5.30
2022-11-06T00:49:02.778Z,5.30
2022-11-06T00:50:02.800Z,5.30
2022-11-06T00:51:02.834Z,5.30
2022-11-06T00:52:04.600Z,5.30
2022-11-06T00:53:03.142Z,5.30
2022-11-06T00:54:03.080Z,5.20
2022-11-06T00:55:03.148Z,5.20
2022-11-06T00:56:03.344Z,5.20
2022-11-06T00:57:03.405Z,5.20
2022-11-06T00:58:03.545Z,5.20
2022-11-06T00:59:03.447Z,5.20
2022-11-06T01:00:03.467Z,5.20
2022-11-06T01:01:03.424Z,5.20
2022-11-06T01:02:03.511Z,5.20
2022-11-06T01:03:03.675Z,5.20
2022-11-06T01:04:03.518Z,5.20
2022-11-06T01:05:02.653Z,5.20
2022-11-06T01:06:02.682Z,5.20
2022-11-06T01:07:02.704Z,5.20
2022-11-06T01:08:02.828Z,5.20
2022-11-06T01:09:02.816Z,5.20
2022-11-06T01:10:03.910Z,5.20
2022-11-06T01:11:02.828Z,5.20
2022-11-06T01:12:14.526Z,5.20
2022-11-06T01:13:03.033Z,5.20
2022-11-06T01:14:03.022Z,5.20
2022-11-06T01:15:03.001Z,5.20
2022-11-06T01:16:03.183Z,5.20
2022-11-06T01:17:03.241Z,5.20
2022-11-06T01:18:03.223Z,5.20
2022-11-06T01:19:03.232Z,5.20
2022-11-06T01:20:03.320Z,5.20
2022-11-06T01:21:02.737Z,5.20
2022-11-06T01:22:03.523Z,5.20
2022-11-06T01:23:03.596Z,5.20
2022-11-06T01:24:03.680Z,5.20
2022-11-06T01:25:02.728Z,5.20
2022-11-06T01:26:02.722Z,5.20
2022-11-06T01:27:25.258Z,5.30
2022-11-06T01:28:02.747Z,5.30
2022-11-06T01:29:02.760Z,5.30
2022-11-06T01:30:02.701Z,5.30
2022-11-06T01:31:02.829Z,5.30
2022-11-06T01:32:02.857Z,5.30
2022-11-06T01:33:02.948Z,5.30
2022-11-06T01:34:02.998Z,5.30
2022-11-06T01:35:03.073Z,5.30
2022-11-06T01:36:03.382Z,5.30
2022-11-06T01:37:03.626Z,5.30
2022-11-06T01:38:03.569Z,5.30
2022-11-06T01:39:02.713Z,5.40
2022-11-06T01:40:02.785Z,5.30
2022-11-06T01:41:02.841Z,5.40
2022-11-06T01:42:02.922Z,5.40
2022-11-06T01:43:02.986Z,5.40
2022-11-06T01:44:04.283Z,5.40
2022-11-06T01:45:03.021Z,5.40
2022-11-06T01:46:02.993Z,5.40
2022-11-06T01:47:03.123Z,5.40
2022-11-06T01:48:03.205Z,5.40
2022-11-06T01:49:03.156Z,5.40
2022-11-06T01:50:03.249Z,5.40
2022-11-06T01:51:03.307Z,5.40
2022-11-06T01:52:03.399Z,5.40
2022-11-06T01:53:03.412Z,5.40
2022-11-06T01:54:03.440Z,5.40
2022-11-06T01:55:03.477Z,5.40
2022-11-06T01:56:03.539Z,5.40
2022-11-06T01:57:02.651Z,5.40
2022-11-06T01:58:03.189Z,5.40
2022-11-06T01:59:03.026Z,5.40
2022-11-06T02:00:02.967Z,5.40
2022-11-06T02:01:03.108Z,5.40
2022-11-06T02:02:03.354Z,5.40
2022-11-06T02:03:03.359Z,5.40
2022-11-06T02:04:03.242Z,5.40
2022-11-06T02:05:03.345Z,5.40
2022-11-06T02:06:03.071Z,5.30
2022-11-06T02:07:03.229Z,5.30
2022-11-06T02:08:03.245Z,5.30
2022-11-06T02:09:02.668Z,5.30
2022-11-06T02:10:02.646Z,5.30
2022-11-06T02:11:02.968Z,5.20
2022-11-06T02:12:03.002Z,5.20
2022-11-06T02:13:02.954Z,5.20
2022-11-06T02:14:03.032Z,5.20
2022-11-06T02:15:03.127Z,5.20
2022-11-06T02:16:03.114Z,5.20
2022-11-06T02:17:03.229Z,5.20
2022-11-06T02:18:03.407Z,5.20
2022-11-06T02:19:03.471Z,5.20
2022-11-06T02:20:03.440Z,5.20
2022-11-06T02:21:03.538Z,5.30
2022-11-06T02:22:03.507Z,5.30
2022-11-06T02:23:02.684Z,5.30
2022-11-06T02:24:02.664Z,5.30
2022-11-06T02:25:02.771Z,5.30
2022-11-06T02:26:02.775Z,5.30
2022-11-06T02:27:02.799Z,5.30
2022-11-06T02:28:02.738Z,5.30
2022-11-06T02:29:02.837Z,5.30
2022-11-06T02:30:02.910Z,5.30
2022-11-06T02:31:02.951Z,5.30
2022-11-06T02:32:02.995Z,5.30
2022-11-06T02:33:02.977Z,5.30
2022-11-06T02:34:03.107Z,5.30
2022-11-06T02:35:03.070Z,5.30
2022-11-06T02:36:03.255Z,5.30
2022-11-06T02:37:03.261Z,5.30
2022-11-06T02:38:03.270Z,5.30
2022-11-06T02:39:03.332Z,5.30
2022-11-06T02:40:03.408Z,5.30
2022-11-06T02:41:03.455Z,5.30
2022-11-06T02:42:03.429Z,5.30
2022-11-06T02:43:03.629Z,5.30
2022-11-06T02:44:03.573Z,5.30
2022-11-06T02:45:02.608Z,5.30
2022-11-06T02:46:02.606Z,5.30
2022-11-06T02:47:02.771Z,5.20
2022-11-06T02:48:02.760Z,5.20
2022-11-06T02:49:02.874Z,5.20
2022-11-06T02:50:03.008Z,5.20
2022-11-06T02:51:02.908Z,5.20
2022-11-06T02:52:03.002Z,5.20
2022-11-06T02:53:03.044Z,5.20
2022-11-06T02:54:03.056Z,5.20
2022-11-06T02:55:03.079Z,5.20
2022-11-06T02:56:03.052Z,5.20
2022-11-06T02:57:03.128Z,5.20
2022-11-06T02:58:03.216Z,5.10
2022-11-06T02:59:03.205Z,5.10
2022-11-06T03:00:03.299Z,5.10
2022-11-06T03:01:03.303Z,5.10
2022-11-06T03:02:03.335Z,5.10
2022-11-06T03:03:03.495Z,5.00
2022-11-06T03:04:03.385Z,5.00
2022-11-06T03:05:03.584Z,5.00
2022-11-06T03:06:02.692Z,5.00
2022-11-06T03:07:02.764Z,5.00
2022-11-06T03:08:02.781Z,5.00
2022-11-06T03:09:02.816Z,5.00
2022-11-06T03:10:02.911Z,5.00
2022-11-06T03:11:02.942Z,5.00
2022-11-06T03:12:02.910Z,4.90
2022-11-06T03:13:02.903Z,4.90
2022-11-06T03:14:03.052Z,4.90
2022-11-06T03:15:02.992Z,4.90
2022-11-06T03:16:03.017Z,4.90
2022-11-06T03:17:03.241Z,4.80
2022-11-06T03:18:03.376Z,4.80
2022-11-06T03:19:03.380Z,4.80
2022-11-06T03:20:03.575Z,4.80
2022-11-06T03:21:03.606Z,4.80
2022-11-06T03:22:03.593Z,4.80
2022-11-06T03:23:02.747Z,4.80
2022-11-06T03:24:02.729Z,4.70
2022-11-06T03:25:02.810Z,4.70
2022-11-06T03:26:02.835Z,4.70
2022-11-06T03:27:02.879Z,4.80
2022-11-06T03:28:02.895Z,4.70
2022-11-06T03:29:02.834Z,4.70
2022-11-06T03:30:02.973Z,4.70
2022-11-06T03:31:03.039Z,4.70
2022-11-06T03:32:03.064Z,4.70
2022-11-06T03:33:03.189Z,4.70
2022-11-06T03:34:03.170Z,4.70
2022-11-06T03:35:03.345Z,4.70
2022-11-06T03:36:03.506Z,4.70
2022-11-06T03:37:03.394Z,4.70
2022-11-06T03:38:03.483Z,4.70
2022-11-06T03:39:03.515Z,4.70
2022-11-06T03:40:03.481Z,4.70
2022-11-06T03:41:03.557Z,4.70
2022-11-06T03:42:02.641Z,4.70
2022-11-06T03:43:02.681Z,4.70
2022-11-06T03:44:02.704Z,4.70
2022-11-06T03:45:02.792Z,4.70
2022-11-06T03:46:02.780Z,4.70
2022-11-06T03:47:02.725Z,4.70
2022-11-06T03:48:02.840Z,4.70
2022-11-06T03:49:02.814Z,4.70
2022-11-06T03:50:02.883Z,4.70
2022-11-06T03:51:03.021Z,4.60
2022-11-06T03:52:03.008Z,4.60
2022-11-06T03:53:03.113Z,4.60
2022-11-06T03:54:03.192Z,4.60
2022-11-06T03:55:03.199Z,4.60
2022-11-06T03:56:03.193Z,4.60
2022-11-06T03:57:03.292Z,4.60
2022-11-06T03:58:03.408Z,4.60
2022-11-06T03:59:03.409Z,4.60
2022-11-06T04:00:03.336Z,4.50
2022-11-06T04:01:03.491Z,4.50
2022-11-06T04:02:02.810Z,4.50
2022-11-06T04:03:02.781Z,4.50
2022-11-06T04:04:03.495Z,4.50
2022-11-06T04:05:03.569Z,4.50
2022-11-06T04:06:03.540Z,4.50
2022-11-06T04:07:03.571Z,4.50
2022-11-06T04:08:02.748Z,4.50
2022-11-06T04:09:02.886Z,4.50
2022-11-06T04:10:02.828Z,4.50
2022-11-06T04:11:03.026Z,4.50
2022-11-06T04:12:03.202Z,4.50
2022-11-06T04:13:03.183Z,4.50
2022-11-06T04:14:03.286Z,4.50
2022-11-06T04:15:03.180Z,4.50
2022-11-06T04:16:03.236Z,4.50
2022-11-06T04:17:03.311Z,4.50
2022-11-06T04:18:03.399Z,4.50
2022-11-06T04:19:03.319Z,4.50
2022-11-06T04:20:03.500Z,4.50
2022-11-06T04:21:03.521Z,4.50
2022-11-06T04:22:03.543Z,4.50
2022-11-06T04:23:03.634Z,4.50
2022-11-06T04:24:03.560Z,4.40
2022-11-06T04:25:03.601Z,4.40
2022-11-06T04:26:02.683Z,4.50
2022-11-06T04:27:02.996Z,4.40
2022-11-06T04:28:03.128Z,4.40
2022-11-06T04:29:03.057Z,4.40
2022-11-06T04:30:03.116Z,4.40
2022-11-06T04:31:03.113Z,4.40
2022-11-06T04:32:03.262Z,4.40
2022-11-06T04:33:03.311Z,4.40
2022-11-06T04:34:03.235Z,4.40
2022-11-06T04:35:03.295Z,4.40
2022-11-06T04:36:03.336Z,4.40
2022-11-06T04:37:03.375Z,4.40
2022-11-06T04:38:03.403Z,4.40
2022-11-06T04:39:03.416Z,4.40
2022-11-06T04:40:02.755Z,4.40
2022-11-06T04:41:02.733Z,4.40
2022-11-06T04:42:02.744Z,4.40
2022-11-06T04:43:02.852Z,4.40
2022-11-06T04:44:02.975Z,4.40
2022-11-06T04:45:02.972Z,4.40
2022-11-06T04:46:03.416Z,4.40
2022-11-06T04:47:03.461Z,4.40
2022-11-06T04:48:03.468Z,4.40
2022-11-06T04:49:02.640Z,4.40
2022-11-06T04:50:02.683Z,4.40
2022-11-06T04:51:02.689Z,4.40
2022-11-06T04:52:02.707Z,4.40
2022-11-06T04:53:02.663Z,4.40
2022-11-06T04:54:02.767Z,4.40
2022-11-06T04:55:02.810Z,4.40
2022-11-06T04:56:02.886Z,4.40
2022-11-06T04:57:02.875Z,4.40
2022-11-06T04:58:02.959Z,4.40
2022-11-06T04:59:03.162Z,4.40
2022-11-06T05:00:03.151Z,4.50
2022-11-06T05:01:03.224Z,4.50
2022-11-06T05:02:03.257Z,4.50
2022-11-06T05:03:03.274Z,4.50
2022-11-06T05:04:03.294Z,4.50
2022-11-06T05:05:03.243Z,4.50
2022-11-06T05:06:03.509Z,4.50
2022-11-06T05:07:03.357Z,4.50
2022-11-06T05:08:03.453Z,4.50
2022-11-06T05:09:03.597Z,4.50
2022-11-06T05:10:03.558Z,4.50
2022-11-06T05:11:03.558Z,4.50
2022-11-06T05:12:02.758Z,4.60
2022-11-06T05:13:02.723Z,4.50
2022-11-06T05:14:02.689Z,4.50
2022-11-06T05:15:02.746Z,4.60
2022-11-06T05:16:02.844Z,4.60
2022-11-06T05:17:03.003Z,4.60
2022-11-06T05:18:03.132Z,4.60
2022-11-06T05:19:03.277Z,4.60
2022-11-06T05:20:03.350Z,4.60
2022-11-06T05:21:03.513Z,4.60
2022-11-06T05:22:02.688Z,4.60
2022-11-06T05:23:02.686Z,4.60
2022-11-06T05:24:02.714Z,4.60
2022-11-06T05:25:03.129Z,4.60
2022-11-06T05:26:02.991Z,4.60
2022-11-06T05:27:03.010Z,4.70
2022-11-06T05:28:03.025Z,4.70
2022-11-06T05:29:03.047Z,4.70
2022-11-06T05:30:03.057Z,4.70
2022-11-06T05:31:03.102Z,4.70
2022-11-06T05:32:03.209Z,4.70
2022-11-06T05:33:03.300Z,4.70
2022-11-06T05:34:03.374Z,4.70
2022-11-06T05:35:03.346Z,4.70
2022-11-06T05:36:03.410Z,4.70
2022-11-06T05:37:03.451Z,4.70
2022-11-06T05:38:03.536Z,4.70
2022-11-06T05:39:03.526Z,4.70
2022-11-06T05:40:03.568Z,4.70
2022-11-06T05:41:03.660Z,4.70
2022-11-06T05:42:02.634Z,4.70
2022-11-06T05:43:02.770Z,4.70
2022-11-06T05:44:02.907Z,4.70
2022-11-06T05:45:02.866Z,4.70
2022-11-06T05:46:02.939Z,4.70
2022-11-06T05:47:03.182Z,4.70
2022-11-06T05:48:03.162Z,4.70
2022-11-06T05:49:03.095Z,4.70
2022-11-06T05:50:03.194Z,4.70
2022-11-06T05:51:03.199Z,4.60
2022-11-06T05:52:03.218Z,4.70
2022-11-06T05:53:03.325Z,4.60
2022-11-06T05:54:03.512Z,4.60
2022-11-06T05:55:03.555Z,4.60
2022-11-06T05:56:02.606Z,4.60
2022-11-06T05:57:02.736Z,4.60
2022-11-06T05:58:02.713Z,4.60
2022-11-06T05:59:02.776Z,4.60
2022-11-06T06:00:02.845Z,4.60
2022-11-06T06:01:02.943Z,4.60
2022-11-06T06:02:03.217Z,4.60
2022-11-06T06:03:03.245Z,4.60
2022-11-06T06:04:03.231Z,4.60
2022-11-06T06:05:02.973Z,4.60
2022-11-06T06:06:03.186Z,4.60
2022-11-06T06:07:03.139Z,4.60
2022-11-06T06:08:03.300Z,4.60
2022-11-06T06:09:03.334Z,4.60
2022-11-06T06:10:03.391Z,4.60
2022-11-06T06:11:03.502Z,4.60
2022-11-06T06:12:03.488Z,4.60
2022-11-06T06:13:03.622Z,4.60
2022-11-06T06:14:03.578Z,4.60
2022-11-06T06:15:02.731Z,4.60
2022-11-06T06:16:02.793Z,4.60
2022-11-06T06:17:02.846Z,4.60
2022-11-06T06:18:02.931Z,4.60
2022-11-06T06:19:02.960Z,4.60
2022-11-06T06:20:03.011Z,4.60
2022-11-06T06:21:03.089Z,4.60
2022-11-06T06:22:03.036Z,4.60
2022-11-06T06:23:03.059Z,4.60
2022-11-06T06:24:03.156Z,4.60
2022-11-06T06:25:03.135Z,4.60
2022-11-06T06:26:03.122Z,4.60
2022-11-06T06:27:03.173Z,4.50
2022-11-06T06:28:03.373Z,4.60
2022-11-06T06:29:03.470Z,4.50
2022-11-06T06:30:03.398Z,4.50
2022-11-06T06:31:03.512Z,4.50
2022-11-06T06:32:03.535Z,4.50
2022-11-06T06:33:03.512Z,4.50
2022-11-06T06:34:03.583Z,4.50
2022-11-06T06:35:02.676Z,4.50
2022-11-06T06:36:02.784Z,4.50
2022-11-06T06:37:02.800Z,4.50
2022-11-06T06:38:02.893Z,4.50
2022-11-06T06:39:02.871Z,4.50
2022-11-06T06:40:02.865Z,4.50
2022-11-06T06:41:02.908Z,4.50
2022-11-06T06:42:03.021Z,4.50
2022-11-06T06:43:03.039Z,4.50
2022-11-06T06:44:03.000Z,4.50
2022-11-06T06:45:03.024Z,4.50
2022-11-06T06:46:03.005Z,4.50
2022-11-06T06:47:03.081Z,4.50
2022-11-06T06:48:03.088Z,4.50
2022-11-06T06:49:03.635Z,4.50
2022-11-06T06:50:02.669Z,4.50
2022-11-06T06:51:02.691Z,4.50
2022-11-06T06:52:02.753Z,4.50
2022-11-06T06:53:02.723Z,4.50
2022-11-06T06:54:02.826Z,4.50
2022-11-06T06:55:02.918Z,4.50
2022-11-06T06:56:03.123Z,4.50
2022-11-06T06:57:03.074Z,4.50
2022-11-06T06:58:03.196Z,4.50
2022-11-06T06:59:03.206Z,4.50
2022-11-06T07:00:03.318Z,4.50
2022-11-06T07:01:03.496Z,4.50
2022-11-06T07:02:03.511Z,4.50
2022-11-06T07:03:03.539Z,4.50
2022-11-06T07:04:04.336Z,4.60
2022-11-06T07:05:02.724Z,4.60
2022-11-06T07:06:02.802Z,4.60
2022-11-06T07:07:02.783Z,4.60
2022-11-06T07:08:02.945Z,4.60
2022-11-06T07:09:03.086Z,4.60
2022-11-06T07:10:02.966Z,4.60
2022-11-06T07:11:03.057Z,4.60
2022-11-06T07:12:03.322Z,4.60
2022-11-06T07:13:03.263Z,4.60
2022-11-06T07:14:03.285Z,4.70
2022-11-06T07:15:03.446Z,4.70
2022-11-06T07:16:03.403Z,4.70
2022-11-06T07:17:03.567Z,4.70
2022-11-06T07:18:02.757Z,4.80
2022-11-06T07:19:02.735Z,4.80
2022-11-06T07:20:02.852Z,4.80
2022-11-06T07:21:02.920Z,4.90
2022-11-06T07:22:02.932Z,4.90
2022-11-06T07:23:03.006Z,4.90
2022-11-06T07:24:02.959Z,4.90
2022-11-06T07:25:02.877Z,5.00
2022-11-06T07:26:02.942Z,5.00
2022-11-06T07:27:03.044Z,5.00
2022-11-06T07:28:03.157Z,5.00
2022-11-06T07:29:03.150Z,5.10
2022-11-06T07:30:03.287Z,5.10
2022-11-06T07:31:03.256Z,5.10
2022-11-06T07:32:03.280Z,5.10
2022-11-06T07:33:03.241Z,5.20
2022-11-06T07:34:03.245Z,5.20
2022-11-06T07:35:03.483Z,5.30
2022-11-06T07:36:03.494Z,5.30
2022-11-06T07:37:05.235Z,5.40
2022-11-06T07:38:02.704Z,5.40
2022-11-06T07:39:02.718Z,5.50
2022-11-06T07:40:02.769Z,5.50
2022-11-06T07:41:02.906Z,5.50
2022-11-06T07:42:03.064Z,5.60
2022-11-06T07:43:03.050Z,5.60
2022-11-06T07:44:03.056Z,5.60
2022-11-06T07:45:03.008Z,5.70
2022-11-06T07:46:03.121Z,5.70
2022-11-06T07:47:03.175Z,5.70
2022-11-06T07:48:03.206Z,5.80
2022-11-06T07:49:03.239Z,5.80
2022-11-06T07:50:03.094Z,5.80
2022-11-06T07:51:03.213Z,5.80
2022-11-06T07:52:03.201Z,5.90
2022-11-06T07:53:03.285Z,5.90
2022-11-06T07:54:03.322Z,5.90
2022-11-06T07:55:03.386Z,6.00
2022-11-06T07:56:03.336Z,6.00
2022-11-06T07:57:03.363Z,6.00
2022-11-06T07:58:03.338Z,6.00
2022-11-06T07:59:03.340Z,6.10
2022-11-06T08:00:03.366Z,6.10
2022-11-06T08:01:03.428Z,6.10
2022-11-06T08:02:03.524Z,6.10
2022-11-06T08:03:03.415Z,6.20
2022-11-06T08:04:03.498Z,6.20
2022-11-06T08:05:02.672Z,6.20
2022-11-06T08:06:02.608Z,6.20
2022-11-06T08:07:02.646Z,6.30
2022-11-06T08:08:02.739Z,6.30
2022-11-06T08:09:02.748Z,6.30
2022-11-06T08:10:02.720Z,6.40
2022-11-06T08:11:02.772Z,6.40
2022-11-06T08:12:02.869Z,6.40
2022-11-06T08:13:02.823Z,6.40
2022-11-06T08:14:02.916Z,6.50
2022-11-06T08:15:02.975Z,6.50
2022-11-06T08:16:02.993Z,6.50
2022-11-06T08:17:02.997Z,6.60
2022-11-06T08:18:02.906Z,6.60
2022-11-06T08:19:03.083Z,6.60
2022-11-06T08:20:03.303Z,6.60
2022-11-06T08:21:03.454Z,6.70
2022-11-06T08:22:03.529Z,6.70
2022-11-06T08:23:03.559Z,6.70
2022-11-06T08:24:02.662Z,6.80
2022-11-06T08:25:02.678Z,6.80
2022-11-06T08:26:02.900Z,6.80
2022-11-06T08:27:03.037Z,6.80
2022-11-06T08:28:03.042Z,6.90
2022-11-06T08:29:03.116Z,6.90
2022-11-06T08:30:03.160Z,6.90
2022-11-06T08:31:03.212Z,7.00
2022-11-06T08:32:03.406Z,7.00
2022-11-06T08:33:03.410Z,7.00
2022-11-06T08:34:03.445Z,7.10
2022-11-06T08:35:03.462Z,7.10
2022-11-06T08:36:03.533Z,7.10
2022-11-06T08:37:03.589Z,7.20
2022-11-06T08:38:02.869Z,7.20
2022-11-06T08:39:02.862Z,7.20
2022-11-06T08:40:02.863Z,7.20
2022-11-06T08:41:03.019Z,7.30
2022-11-06T08:42:02.963Z,7.30
2022-11-06T08:43:03.127Z,7.30
2022-11-06T08:44:03.611Z,7.40
2022-11-06T08:45:03.619Z,7.40
2022-11-06T08:46:03.578Z,7.40
2022-11-06T08:47:02.641Z,7.40
2022-11-06T08:48:02.743Z,7.50
2022-11-06T08:49:02.854Z,7.50
2022-11-06T08:50:02.889Z,7.50
2022-11-06T08:51:02.918Z,7.60
2022-11-06T08:52:02.976Z,7.60
2022-11-06T08:53:02.988Z,7.60
2022-11-06T08:54:03.013Z,7.60
2022-11-06T08:55:03.073Z,7.70
2022-11-06T08:56:03.081Z,7.70
2022-11-06T08:57:03.525Z,7.70
2022-11-06T08:58:03.614Z,7.70
2022-11-06T08:59:02.628Z,7.80
2022-11-06T09:00:02.653Z,7.80
2022-11-06T09:01:02.696Z,7.80
2022-11-06T09:02:02.802Z,7.80
2022-11-06T09:03:02.792Z,7.90
2022-11-06T09:04:03.003Z,7.90
2022-11-06T09:05:02.884Z,7.90
2022-11-06T09:06:03.148Z,7.90
2022-11-06T09:07:03.103Z,8.00
2022-11-06T09:08:03.193Z,8.00
2022-11-06T09:09:03.307Z,8.00
2022-11-06T09:10:03.330Z,8.00
2022-11-06T09:11:03.362Z,8.10
2022-11-06T09:12:03.366Z,8.10
2022-11-06T09:13:03.462Z,8.10
2022-11-06T09:14:03.487Z,8.20
2022-11-06T09:15:03.416Z,8.20
2022-11-06T09:16:03.477Z,8.20
2022-11-06T09:17:03.585Z,8.20
2022-11-06T09:18:03.543Z,8.30
2022-11-06T09:19:02.653Z,8.30
2022-11-06T09:20:02.797Z,8.30
2022-11-06T09:21:02.814Z,8.30
2022-11-06T09:22:02.720Z,8.40
2022-11-06T09:23:02.840Z,8.40
2022-11-06T09:24:02.835Z,8.50
2022-11-06T09:25:04.282Z,8.50
2022-11-06T09:26:02.868Z,8.50
2022-11-06T09:27:02.915Z,8.50
2022-11-06T09:28:03.092Z,8.60
2022-11-06T09:29:03.126Z,8.60
2022-11-06T09:30:03.162Z,8.60
2022-11-06T09:31:03.270Z,8.60
2022-11-06T09:32:03.222Z,8.70
2022-11-06T09:33:03.307Z,8.70
2022-11-06T09:34:03.349Z,8.70
2022-11-06T09:35:03.559Z,8.70
2022-11-06T09:36:03.510Z,8.80
2022-11-06T09:37:02.697Z,8.80
2022-11-06T09:38:02.856Z,8.80
2022-11-06T09:39:02.817Z,8.90
2022-11-06T09:40:06.236Z,8.90
2022-11-06T09:41:02.851Z,8.90
2022-11-06T09:42:02.749Z,8.90
2022-11-06T09:43:02.843Z,8.90
2022-11-06T09:44:05.418Z,9.00
2022-11-06T09:45:03.027Z,9.00
2022-11-06T09:46:03.183Z,9.00
2022-11-06T09:47:03.271Z,9.10
2022-11-06T09:48:03.374Z,9.10
2022-11-06T09:49:03.390Z,9.10
2022-11-06T09:50:03.367Z,9.10
2022-11-06T09:51:03.527Z,9.10
2022-11-06T09:52:03.559Z,9.20
2022-11-06T09:53:06.057Z,9.20
2022-11-06T09:54:03.630Z,9.20
2022-11-06T09:55:03.619Z,9.20
2022-11-06T09:56:02.660Z,9.20
2022-11-06T09:57:02.801Z,9.30
2022-11-06T09:58:02.758Z,9.30
2022-11-06T09:59:02.886Z,9.30
2022-11-06T10:00:03.076Z,9.40
2022-11-06T10:01:03.131Z,9.40
2022-11-06T10:02:03.174Z,9.40
2022-11-06T10:03:02.996Z,9.40
2022-11-06T10:04:03.104Z,9.40
2022-11-06T10:05:03.172Z,9.50
2022-11-06T10:06:03.123Z,9.50
2022-11-06T10:07:03.176Z,9.50
2022-11-06T10:08:03.193Z,9.50
2022-11-06T10:09:03.173Z,9.50
2022-11-06T10:10:03.171Z,9.50
2022-11-06T10:11:03.238Z,9.60
2022-11-06T10:12:03.388Z,9.60
2022-11-06T10:13:03.660Z,9.60
2022-11-06T10:14:02.698Z,9.60
2022-11-06T10:15:02.675Z,9.60
2022-11-06T10:16:02.951Z,9.60
2022-11-06T10:17:03.042Z,9.70
2022-11-06T10:18:03.134Z,9.70
2022-11-06T10:19:03.057Z,9.80
2022-11-06T10:20:03.167Z,9.80
2022-11-06T10:21:03.205Z,9.80
2022-11-06T10:22:03.210Z,9.80
2022-11-06T10:23:03.292Z,9.80
2022-11-06T10:24:03.298Z,9.90
2022-11-06T10:25:03.437Z,9.90
2022-11-06T10:26:03.350Z,9.90
2022-11-06T10:27:03.445Z,9.90
2022-11-06T10:28:03.467Z,10.00
2022-11-06T10:29:03.597Z,10.00
2022-11-06T10:30:02.733Z,10.00
2022-11-06T10:31:02.820Z,10.00
2022-11-06T10:32:02.786Z,10.00
2022-11-06T10:33:02.825Z,10.00
2022-11-06T10:34:02.836Z,10.00
2022-11-06T10:35:02.845Z,10.00
2022-11-06T10:36:02.971Z,10.00
2022-11-06T10:37:02.909Z,10.00
2022-11-06T10:38:02.959Z,10.00
2022-11-06T10:39:03.197Z,10.10
2022-11-06T10:40:03.152Z,10.00
2022-11-06T10:41:03.276Z,10.10
2022-11-06T10:42:03.334Z,10.10
2022-11-06T10:43:03.434Z,10.10
2022-11-06T10:44:03.471Z,10.10
2022-11-06T10:45:03.551Z,10.10
2022-11-06T10:46:02.678Z,10.10
2022-11-06T10:47:02.659Z,10.10
2022-11-06T10:48:02.828Z,10.20
2022-11-06T10:49:02.724Z,10.20
2022-11-06T10:50:02.834Z,10.20
2022-11-06T10:51:02.890Z,10.20
2022-11-06T10:52:02.911Z,10.20
2022-11-06T10:53:02.981Z,10.20
2022-11-06T10:54:02.962Z,10.20
2022-11-06T10:55:03.079Z,10.30
2022-11-06T10:56:06.803Z,10.30
2022-11-06T10:57:03.365Z,10.30
2022-11-06T10:58:03.348Z,10.30
2022-11-06T10:59:03.392Z,10.30
2022-11-06T11:00:03.515Z,10.30
2022-11-06T11:01:02.699Z,10.30
2022-11-06T11:02:03.492Z,10.30
2022-11-06T11:03:02.776Z,10.40
2022-11-06T11:04:02.749Z,10.40
2022-11-06T11:05:02.805Z,10.40
2022-11-06T11:06:03.033Z,10.40
2022-11-06T11:07:03.016Z,10.40
2022-11-06T11:08:02.984Z,10.40
2022-11-06T11:09:03.149Z,10.40
2022-11-06T11:10:03.199Z,10.50
2022-11-06T11:11:05.061Z,10.50
2022-11-06T11:12:03.141Z,10.50
2022-11-06T11:13:07.056Z,10.50
2022-11-06T11:14:03.293Z,10.50
2022-11-06T11:15:03.337Z,10.50
2022-11-06T11:16:03.238Z,10.50
2022-11-06T11:17:03.372Z,10.50
2022-11-06T11:18:03.548Z,10.60
2022-11-06T11:19:03.476Z,10.60
2022-11-06T11:20:03.420Z,10.60
2022-11-06T11:21:03.434Z,10.60
2022-11-06T11:22:02.653Z,10.50
2022-11-06T11:23:02.707Z,10.50
2022-11-06T11:24:02.791Z,10.50
2022-11-06T11:25:03.132Z,10.60
2022-11-06T11:26:02.755Z,10.60
2022-11-06T11:27:02.778Z,10.60
2022-11-06T11:28:04.913Z,10.60
2022-11-06T11:29:02.876Z,10.60
2022-11-06T11:30:03.021Z,10.60
2022-11-06T11:31:02.983Z,10.70
2022-11-06T11:32:03.030Z,10.70
2022-11-06T11:33:03.280Z,10.70
2022-11-06T11:34:03.295Z,10.70
2022-11-06T11:35:03.235Z,10.70
2022-11-06T11:36:03.283Z,10.70
2022-11-06T11:37:03.215Z,10.70
2022-11-06T11:38:03.284Z,10.80
2022-11-06T11:39:03.335Z,10.80
2022-11-06T11:40:03.409Z,10.80
2022-11-06T11:41:03.586Z,10.80
2022-11-06T11:42:03.622Z,10.80
2022-11-06T11:43:02.684Z,10.80
2022-11-06T11:44:02.697Z,10.80
2022-11-06T11:45:02.691Z,10.80
2022-11-06T11:46:02.833Z,10.80
2022-11-06T11:47:06.896Z,10.80
2022-11-06T11:48:02.846Z,10.80
2022-11-06T11:49:02.987Z,10.80
2022-11-06T11:50:02.992Z,10.90
2022-11-06T11:51:03.003Z,10.90
2022-11-06T11:52:03.089Z,10.90
2022-11-06T11:53:05.715Z,10.90
2022-11-06T11:54:03.086Z,10.90
2022-11-06T11:55:03.096Z,11.00
2022-11-06T11:56:03.167Z,10.90
2022-11-06T11:57:05.502Z,10.90
2022-11-06T11:58:03.194Z,10.90
2022-11-06T11:59:03.409Z,11.00
2022-11-06T12:00:03.550Z,11.00
2022-11-06T12:01:03.503Z,11.00
2022-11-06T12:02:03.636Z,11.00
2022-11-06T12:03:03.711Z,11.00
2022-11-06T12:04:02.606Z,11.00
2022-11-06T12:05:02.830Z,11.00
2022-11-06T12:06:02.915Z,11.00
2022-11-06T12:07:02.896Z,11.00
2022-11-06T12:08:02.987Z,11.00
2022-11-06T12:09:03.142Z,11.00
2022-11-06T12:10:03.070Z,11.00
2022-11-06T12:11:03.143Z,11.00
2022-11-06T12:12:03.127Z,11.10
2022-11-06T12:13:03.180Z,11.00
2022-11-06T12:14:03.276Z,11.10
2022-11-06T12:15:03.279Z,11.10
2022-11-06T12:16:03.324Z,11.10
2022-11-06T12:17:03.327Z,11.00
2022-11-06T12:18:03.484Z,11.10
2022-11-06T12:19:03.635Z,11.10
2022-11-06T12:20:03.591Z,11.10
2022-11-06T12:21:02.615Z,11.10
2022-11-06T12:22:02.868Z,11.10
2022-11-06T12:23:02.760Z,11.10
2022-11-06T12:24:02.910Z,11.10
2022-11-06T12:25:03.062Z,11.00
2022-11-06T12:26:03.063Z,11.00
2022-11-06T12:27:03.136Z,11.10
2022-11-06T12:28:03.299Z,11.10
2022-11-06T12:29:05.234Z,11.10
2022-11-06T12:30:03.296Z,11.00
2022-11-06T12:31:03.541Z,11.00
2022-11-06T12:32:03.477Z,11.00
2022-11-06T12:33:03.565Z,11.10
2022-11-06T12:34:06.418Z,11.00
2022-11-06T12:35:03.527Z,11.00
2022-11-06T12:36:02.614Z,11.00
2022-11-06T12:37:02.804Z,11.00
2022-11-06T12:38:02.736Z,11.00
2022-11-06T12:39:02.868Z,11.10
2022-11-06T12:40:02.820Z,11.00
2022-11-06T12:41:02.897Z,11.00
2022-11-06T12:42:02.868Z,11.00
2022-11-06T12:43:02.889Z,11.00
2022-11-06T12:44:02.926Z,11.00
2022-11-06T12:45:02.933Z,11.00
2022-11-06T12:46:02.946Z,11.10
2022-11-06T12:47:03.067Z,11.00
2022-11-06T12:48:03.182Z,11.10
2022-11-06T12:49:03.310Z,11.00
2022-11-06T12:50:03.313Z,11.10
2022-11-06T12:51:03.272Z,11.10
2022-11-06T12:52:03.338Z,11.10
2022-11-06T12:53:06.024Z,11.10
2022-11-06T12:54:03.436Z,11.10
2022-11-06T12:55:03.524Z,11.10
2022-11-06T12:56:02.627Z,11.10
2022-11-06T12:57:02.810Z,11.10
2022-11-06T12:58:02.882Z,11.10
2022-11-06T12:59:02.847Z,11.10
2022-11-06T13:00:03.003Z,11.10
2022-11-06T13:01:03.068Z,11.10
2022-11-06T13:02:03.161Z,11.10
2022-11-06T13:03:03.165Z,11.10
2022-11-06T13:04:03.266Z,11.10
2022-11-06T13:05:03.381Z,11.10
2022-11-06T13:06:03.428Z,11.10
2022-11-06T13:07:03.462Z,11.10
2022-11-06T13:08:03.481Z,11.10
2022-11-06T13:09:03.420Z,11.10
2022-11-06T13:10:03.515Z,11.10
2022-11-06T13:11:03.599Z,11.10
2022-11-06T13:12:03.572Z,11.10